createdAt,value
2018-03-16T00:00:21.104Z,992.96
2018-03-16T00:01:30.009Z,992.98
2018-03-16T00:02:38.667Z,993.01
2018-03-16T00:03:47.588Z,993.06
2018-03-16T00:04:56.499Z,993.05
2018-03-16T00:06:06.191Z,993.07
2018-03-16T00:07:14.843Z,993.09
2018-03-16T00:08:24.347Z,993.11
2018-03-16T00:09:33.292Z,993.18
2018-03-16T00:10:42.447Z,993.17
2018-03-16T00:11:51.366Z,993.18
2018-03-16T00:13:00.341Z,993.16
2018-03-16T00:14:09.280Z,993.2
2018-03-16T00:15:18.514Z,993.15
2018-03-16T00:16:27.935Z,993.2
2018-03-16T00:17:37.128Z,993.21
2018-03-16T00:18:46.077Z,993.23
2018-03-16T00:19:55.017Z,993.23
2018-03-16T00:21:04.178Z,993.27
2018-03-16T00:22:13.869Z,993.28
2018-03-16T00:23:22.810Z,993.32
2018-03-16T00:24:31.992Z,993.31
2018-03-16T00:25:40.965Z,993.36
2018-03-16T00:26:50.406Z,993.34
2018-03-16T00:27:59.582Z,993.35
2018-03-16T00:29:08.769Z,993.35
2018-03-16T00:30:17.449Z,993.38
2018-03-16T00:31:26.394Z,993.32
2018-03-16T00:32:35.083Z,993.39
2018-03-16T00:33:44.048Z,993.37
2018-03-16T00:34:52.703Z,993.31
2018-03-16T00:36:01.649Z,993.33
2018-03-16T00:37:11.139Z,993.32
2018-03-16T00:38:20.437Z,993.32
2018-03-16T00:39:29.370Z,993.33
2018-03-16T00:40:38.360Z,993.35
2018-03-16T00:41:47.876Z,993.33
2018-03-16T00:42:56.548Z,993.33
2018-03-16T00:44:05.210Z,993.33
2018-03-16T00:45:14.663Z,993.34
2018-03-16T00:46:24.146Z,993.35
2018-03-16T00:47:32.827Z,993.35
2018-03-16T00:48:42.295Z,993.31
2018-03-16T00:49:51.274Z,993.33
2018-03-16T00:51:00.718Z,993.32
2018-03-16T00:52:10.267Z,993.29
2018-03-16T00:53:19.509Z,993.28
2018-03-16T00:54:28.439Z,993.31
2018-03-16T00:55:37.110Z,993.33
2018-03-16T00:56:46.802Z,993.26
2018-03-16T00:57:55.836Z,993.29
2018-03-16T00:59:04.475Z,993.3
2018-03-16T01:00:13.932Z,993.24
2018-03-16T01:01:22.621Z,993.29
2018-03-16T01:02:32.122Z,993.25
2018-03-16T01:03:41.028Z,993.23
2018-03-16T01:04:49.947Z,993.28
2018-03-16T01:05:58.614Z,993.21
2018-03-16T01:07:07.291Z,993.22
2018-03-16T01:08:16.252Z,993.26
2018-03-16T01:09:25.176Z,993.24
2018-03-16T01:10:33.881Z,993.26
2018-03-16T01:11:43.338Z,993.26
2018-03-16T01:12:52.824Z,993.29
2018-03-16T01:14:01.497Z,993.28
2018-03-16T01:15:11.188Z,993.33
2018-03-16T01:16:20.356Z,993.29
2018-03-16T01:17:29.275Z,993.23
2018-03-16T01:18:38.498Z,993.24
2018-03-16T01:19:47.662Z,993.21
2018-03-16T01:20:56.420Z,993.18
2018-03-16T01:22:05.374Z,993.19
2018-03-16T01:23:14.555Z,993.17
2018-03-16T01:24:23.485Z,993.2
2018-03-16T01:25:32.772Z,993.19
2018-03-16T01:26:41.720Z,993.23
2018-03-16T01:27:51.476Z,993.23
2018-03-16T01:29:00.229Z,993.2
2018-03-16T01:30:09.408Z,993.22
2018-03-16T01:31:18.847Z,993.22
2018-03-16T01:32:27.766Z,993.21
2018-03-16T01:33:36.939Z,993.19
2018-03-16T01:34:45.620Z,993.18
2018-03-16T01:35:54.272Z,993.17
2018-03-16T01:37:03.451Z,993.2
2018-03-16T01:38:12.625Z,993.17
2018-03-16T01:39:21.635Z,993.2
2018-03-16T01:40:30.654Z,993.17
2018-03-16T01:41:39.826Z,993.18
2018-03-16T01:42:49.047Z,993.19
2018-03-16T01:43:57.964Z,993.23
2018-03-16T01:45:07.172Z,993.21
2018-03-16T01:46:16.101Z,993.26
2018-03-16T01:47:25.256Z,993.23
2018-03-16T01:48:34.707Z,993.24
2018-03-16T01:49:43.901Z,993.22
2018-03-16T01:50:52.545Z,993.24
2018-03-16T01:52:01.464Z,993.26
2018-03-16T01:53:10.628Z,993.26
2018-03-16T01:54:20.067Z,993.26
2018-03-16T01:55:28.801Z,993.3
2018-03-16T01:56:37.713Z,993.29
2018-03-16T01:57:46.894Z,993.28
2018-03-16T01:58:55.809Z,993.26
2018-03-16T02:00:05.512Z,993.27
2018-03-16T02:01:14.443Z,993.27
2018-03-16T02:02:23.632Z,993.29
2018-03-16T02:03:32.545Z,993.32
2018-03-16T02:04:41.992Z,993.29
2018-03-16T02:05:50.928Z,993.29
2018-03-16T02:07:00.365Z,993.3
2018-03-16T02:08:09.821Z,993.28
2018-03-16T02:09:18.797Z,993.34
2018-03-16T02:10:28.186Z,993.32
2018-03-16T02:11:36.841Z,993.36
2018-03-16T02:12:46.012Z,993.35
2018-03-16T02:13:54.923Z,993.35
2018-03-16T02:15:04.358Z,993.28
2018-03-16T02:16:13.294Z,993.33
2018-03-16T02:17:22.279Z,993.33
2018-03-16T02:18:30.965Z,993.33
2018-03-16T02:19:39.610Z,993.32
2018-03-16T02:20:48.824Z,993.29
2018-03-16T02:21:57.534Z,993.3
2018-03-16T02:23:06.750Z,993.26
2018-03-16T02:24:16.202Z,993.24
2018-03-16T02:25:25.367Z,993.28
2018-03-16T02:26:34.830Z,993.22
2018-03-16T02:27:43.781Z,993.23
2018-03-16T02:28:52.963Z,993.21
2018-03-16T02:30:01.880Z,993.24
2018-03-16T02:31:11.164Z,993.22
2018-03-16T02:32:20.374Z,993.21
2018-03-16T02:33:29.547Z,993.21
2018-03-16T02:34:38.775Z,993.26
2018-03-16T02:35:47.708Z,993.23
2018-03-16T02:36:56.894Z,993.22
2018-03-16T02:38:06.060Z,993.25
2018-03-16T02:39:15.251Z,993.22
2018-03-16T02:40:24.422Z,993.23
2018-03-16T02:41:33.130Z,993.22
2018-03-16T02:42:41.823Z,993.22
2018-03-16T02:43:50.727Z,993.26
2018-03-16T02:44:59.670Z,993.23
2018-03-16T02:46:09.132Z,993.26
2018-03-16T02:47:18.334Z,993.24
2018-03-16T02:48:27.538Z,993.27
2018-03-16T02:49:37.032Z,993.22
2018-03-16T02:50:46.213Z,993.26
2018-03-16T02:51:55.419Z,993.27
2018-03-16T02:53:04.651Z,993.29
2018-03-16T02:54:14.367Z,993.28
2018-03-16T02:55:24.126Z,993.29
2018-03-16T02:56:33.058Z,993.31
2018-03-16T02:57:42.261Z,993.31
2018-03-16T02:58:51.209Z,993.35
2018-03-16T03:00:00.500Z,993.34
2018-03-16T03:01:09.463Z,993.33
2018-03-16T03:02:19.207Z,993.35
2018-03-16T03:03:28.652Z,993.34
2018-03-16T03:04:38.206Z,993.37
2018-03-16T03:05:46.870Z,993.37
2018-03-16T03:06:56.322Z,993.39
2018-03-16T03:08:05.780Z,993.38
2018-03-16T03:09:15.227Z,993.44
2018-03-16T03:10:24.146Z,993.42
2018-03-16T03:11:33.334Z,993.43
2018-03-16T03:12:42.300Z,993.42
2018-03-16T03:13:51.231Z,993.4
2018-03-16T03:15:00.389Z,993.45
2018-03-16T03:16:09.848Z,993.48
2018-03-16T03:17:18.486Z,993.49
2018-03-16T03:18:27.422Z,993.5
2018-03-16T03:19:36.596Z,993.55
2018-03-16T03:20:45.508Z,993.59
2018-03-16T03:21:54.155Z,993.57
2018-03-16T03:23:03.117Z,993.57
2018-03-16T03:24:12.531Z,993.59
2018-03-16T03:25:21.449Z,993.58
2018-03-16T03:26:30.130Z,993.56
2018-03-16T03:27:39.561Z,993.59
2018-03-16T03:28:48.472Z,993.62
2018-03-16T03:29:57.640Z,993.62
2018-03-16T03:31:07.368Z,993.62
2018-03-16T03:32:16.799Z,993.62
2018-03-16T03:33:26.267Z,993.64
2018-03-16T03:34:35.436Z,993.64
2018-03-16T03:35:44.626Z,993.68
2018-03-16T03:36:53.809Z,993.71
2018-03-16T03:38:02.998Z,993.69
2018-03-16T03:39:12.462Z,993.72
2018-03-16T03:40:21.376Z,993.68
2018-03-16T03:41:30.533Z,993.69
2018-03-16T03:42:39.223Z,993.73
2018-03-16T03:43:48.973Z,993.7
2018-03-16T03:44:58.183Z,993.7
2018-03-16T03:46:06.832Z,993.67
2018-03-16T03:47:15.770Z,993.67
2018-03-16T03:48:25.219Z,993.67
2018-03-16T03:49:34.682Z,993.69
2018-03-16T03:50:43.892Z,993.68
2018-03-16T03:51:52.881Z,993.67
2018-03-16T03:53:01.576Z,993.73
2018-03-16T03:54:10.761Z,993.73
2018-03-16T03:55:19.952Z,993.74
2018-03-16T03:56:28.651Z,993.78
2018-03-16T03:57:37.855Z,993.77
2018-03-16T03:58:46.514Z,993.78
2018-03-16T03:59:55.687Z,993.77
2018-03-16T04:01:04.658Z,993.78
2018-03-16T04:02:13.331Z,993.81
2018-03-16T04:03:22.257Z,993.82
2018-03-16T04:04:30.910Z,993.86
2018-03-16T04:05:39.812Z,993.9
2018-03-16T04:06:49.000Z,993.92
2018-03-16T04:07:57.917Z,993.93
2018-03-16T04:09:07.462Z,993.89
2018-03-16T04:10:16.654Z,993.92
2018-03-16T04:11:25.576Z,993.92
2018-03-16T04:12:35.016Z,993.92
2018-03-16T04:13:43.719Z,993.95
2018-03-16T04:14:52.684Z,993.93
2018-03-16T04:16:02.115Z,993.94
2018-03-16T04:17:11.569Z,993.95
2018-03-16T04:18:21.008Z,993.92
2018-03-16T04:19:30.189Z,993.92
2018-03-16T04:20:39.397Z,993.94
2018-03-16T04:21:48.609Z,993.98
2018-03-16T04:22:57.775Z,993.98
2018-03-16T04:24:06.729Z,994.02
2018-03-16T04:25:15.662Z,994
2018-03-16T04:26:24.563Z,994.03
2018-03-16T04:27:33.737Z,994
2018-03-16T04:28:42.672Z,994.07
2018-03-16T04:29:52.158Z,994.05
2018-03-16T04:31:01.574Z,994.06
2018-03-16T04:32:10.737Z,994.07
2018-03-16T04:33:19.898Z,994.02
2018-03-16T04:34:28.535Z,994.05
2018-03-16T04:35:37.690Z,994.07
2018-03-16T04:36:46.595Z,994.07
2018-03-16T04:37:55.508Z,994.08
2018-03-16T04:39:04.161Z,994.07
2018-03-16T04:40:13.062Z,994.09
2018-03-16T04:41:22.233Z,994.09
2018-03-16T04:42:31.408Z,994.1
2018-03-16T04:43:41.103Z,994.13
2018-03-16T04:44:50.029Z,994.09
2018-03-16T04:45:59.229Z,994.12
2018-03-16T04:47:07.887Z,994.13
2018-03-16T04:48:16.865Z,994.17
2018-03-16T04:49:26.387Z,994.15
2018-03-16T04:50:35.554Z,994.18
2018-03-16T04:51:44.771Z,994.19
2018-03-16T04:52:53.716Z,994.19
2018-03-16T04:54:02.421Z,994.24
2018-03-16T04:55:11.599Z,994.2
2018-03-16T04:56:20.870Z,994.25
2018-03-16T04:57:30.329Z,994.23
2018-03-16T04:58:39.520Z,994.27
2018-03-16T04:59:49.205Z,994.24
2018-03-16T05:00:58.642Z,994.28
2018-03-16T05:02:07.572Z,994.31
2018-03-16T05:03:17.044Z,994.27
2018-03-16T05:04:26.251Z,994.25
2018-03-16T05:05:35.882Z,994.26
2018-03-16T05:06:44.800Z,994.29
2018-03-16T05:07:53.453Z,994.29
2018-03-16T05:09:02.382Z,994.29
2018-03-16T05:10:11.538Z,994.3
2018-03-16T05:11:20.980Z,994.32
2018-03-16T05:12:30.147Z,994.3
2018-03-16T05:13:39.115Z,994.29
2018-03-16T05:14:48.293Z,994.31
2018-03-16T05:15:57.512Z,994.29
2018-03-16T05:17:06.432Z,994.32
2018-03-16T05:18:15.335Z,994.36
2018-03-16T05:19:24.514Z,994.3
2018-03-16T05:20:33.991Z,994.31
2018-03-16T05:21:43.191Z,994.33
2018-03-16T05:22:52.118Z,994.3
2018-03-16T05:24:01.309Z,994.33
2018-03-16T05:25:09.954Z,994.34
2018-03-16T05:26:19.371Z,994.39
2018-03-16T05:27:28.548Z,994.42
2018-03-16T05:28:37.723Z,994.43
2018-03-16T05:29:47.180Z,994.46
2018-03-16T05:30:56.102Z,994.46
2018-03-16T05:32:05.285Z,994.5
2018-03-16T05:33:14.199Z,994.48
2018-03-16T05:34:23.374Z,994.46
2018-03-16T05:35:32.859Z,994.48
2018-03-16T05:36:41.783Z,994.49
2018-03-16T05:37:50.727Z,994.57
2018-03-16T05:38:59.678Z,994.49
2018-03-16T05:40:08.670Z,994.55
2018-03-16T05:41:17.869Z,994.53
2018-03-16T05:42:27.058Z,994.56
2018-03-16T05:43:36.758Z,994.55
2018-03-16T05:44:45.954Z,994.57
2018-03-16T05:45:54.620Z,994.59
2018-03-16T05:47:03.277Z,994.59
2018-03-16T05:48:12.475Z,994.58
2018-03-16T05:49:21.381Z,994.61
2018-03-16T05:50:30.558Z,994.61
2018-03-16T05:51:39.813Z,994.6
2018-03-16T05:52:49.523Z,994.62
2018-03-16T05:53:58.468Z,994.64
2018-03-16T05:55:07.673Z,994.62
2018-03-16T05:56:17.383Z,994.62
2018-03-16T05:57:26.296Z,994.63
2018-03-16T05:58:34.982Z,994.69
2018-03-16T05:59:43.630Z,994.67
2018-03-16T06:00:52.653Z,994.72
2018-03-16T06:02:02.501Z,994.72
2018-03-16T06:03:11.937Z,994.71
2018-03-16T06:04:21.399Z,994.7
2018-03-16T06:05:30.854Z,994.73
2018-03-16T06:06:39.772Z,994.75
2018-03-16T06:07:48.976Z,994.79
2018-03-16T06:08:57.914Z,994.78
2018-03-16T06:10:07.104Z,994.75
2018-03-16T06:11:16.274Z,994.79
2018-03-16T06:12:25.459Z,994.79
2018-03-16T06:13:34.398Z,994.78
2018-03-16T06:14:43.598Z,994.77
2018-03-16T06:15:52.784Z,994.77
2018-03-16T06:17:02.489Z,994.76
2018-03-16T06:18:11.667Z,994.79
2018-03-16T06:19:20.848Z,994.78
2018-03-16T06:20:30.289Z,994.82
2018-03-16T06:21:39.483Z,994.8
2018-03-16T06:22:48.660Z,994.85
2018-03-16T06:23:57.845Z,994.82
2018-03-16T06:25:06.768Z,994.83
2018-03-16T06:26:16.202Z,994.85
2018-03-16T06:27:25.126Z,994.85
2018-03-16T06:28:34.314Z,994.88
2018-03-16T06:29:43.246Z,994.9
2018-03-16T06:30:51.992Z,994.86
2018-03-16T06:32:01.178Z,994.85
2018-03-16T06:33:10.632Z,994.9
2018-03-16T06:34:19.853Z,994.87
2018-03-16T06:35:29.342Z,994.87
2018-03-16T06:36:38.271Z,994.85
2018-03-16T06:37:47.743Z,994.87
2018-03-16T06:38:56.656Z,994.89
2018-03-16T06:40:05.575Z,994.91
2018-03-16T06:41:15.275Z,994.89
2018-03-16T06:42:24.714Z,994.91
2018-03-16T06:43:33.954Z,994.95
2018-03-16T06:44:43.190Z,994.95
2018-03-16T06:45:52.880Z,994.96
2018-03-16T06:47:02.062Z,994.99
2018-03-16T06:48:10.973Z,994.96
2018-03-16T06:49:19.993Z,994.96
2018-03-16T06:50:28.644Z,995.01
2018-03-16T06:51:37.596Z,995.01
2018-03-16T06:52:46.270Z,995
2018-03-16T06:53:54.940Z,994.99
2018-03-16T06:55:03.863Z,994.94
2018-03-16T06:56:13.316Z,994.97
2018-03-16T06:57:22.496Z,994.97
2018-03-16T06:58:31.751Z,995.01
2018-03-16T06:59:40.662Z,995.04
2018-03-16T07:00:49.584Z,995.05
2018-03-16T07:01:58.805Z,995.11
2018-03-16T07:03:08.316Z,995.1
2018-03-16T07:04:17.300Z,995.07
2018-03-16T07:05:26.735Z,995.23
2018-03-16T07:06:35.670Z,995.14
2018-03-16T07:07:45.421Z,995.13
2018-03-16T07:08:54.682Z,995.1
2018-03-16T07:10:03.626Z,995.12
2018-03-16T07:11:12.796Z,995.14
2018-03-16T07:12:21.991Z,995.16
2018-03-16T07:13:30.666Z,995.17
2018-03-16T07:14:39.920Z,995.22
2018-03-16T07:15:48.867Z,995.19
2018-03-16T07:16:57.850Z,995.23
2018-03-16T07:18:07.059Z,995.2
2018-03-16T07:19:15.992Z,995.21
2018-03-16T07:20:24.695Z,995.22
2018-03-16T07:21:33.677Z,995.26
2018-03-16T07:22:43.129Z,995.27
2018-03-16T07:24:05.045Z,995.29
2018-03-16T07:25:13.996Z,995.31
2018-03-16T07:26:23.176Z,995.31
2018-03-16T07:27:32.123Z,995.31
2018-03-16T07:28:40.814Z,995.34
2018-03-16T07:29:49.508Z,995.32
2018-03-16T07:30:58.696Z,995.34
2018-03-16T07:32:07.400Z,995.33
2018-03-16T07:33:16.840Z,995.34
2018-03-16T07:34:26.042Z,995.33
2018-03-16T07:35:35.205Z,995.35
2018-03-16T07:36:44.628Z,995.33
2018-03-16T07:37:53.286Z,995.35
2018-03-16T07:39:01.940Z,995.39
2018-03-16T07:40:11.662Z,995.4
2018-03-16T07:41:20.320Z,995.36
2018-03-16T07:42:29.768Z,995.37
2018-03-16T07:43:38.710Z,995.41
2018-03-16T07:44:47.624Z,995.43
2018-03-16T07:45:56.540Z,995.44
2018-03-16T07:47:05.464Z,995.48
2018-03-16T07:48:14.397Z,995.5
2018-03-16T07:49:23.648Z,995.5
2018-03-16T07:50:32.589Z,995.54
2018-03-16T07:51:41.508Z,995.56
2018-03-16T07:52:50.425Z,995.58
2018-03-16T07:53:59.093Z,995.58
2018-03-16T07:55:08.017Z,995.62
2018-03-16T07:56:17.204Z,995.63
2018-03-16T07:57:26.402Z,995.62
2018-03-16T07:58:35.330Z,995.64
2018-03-16T07:59:44.938Z,995.66
2018-03-16T08:00:54.357Z,995.65
2018-03-16T08:02:03.527Z,995.66
2018-03-16T08:03:12.617Z,995.68
2018-03-16T08:04:21.568Z,995.7
2018-03-16T08:05:30.774Z,995.71
2018-03-16T08:06:39.687Z,995.76
2018-03-16T08:07:48.916Z,995.74
2018-03-16T08:08:58.439Z,995.81
2018-03-16T08:10:07.671Z,995.82
2018-03-16T08:11:16.871Z,995.81
2018-03-16T08:12:26.295Z,995.82
2018-03-16T08:13:35.222Z,995.86
2018-03-16T08:14:44.402Z,995.89
2018-03-16T08:15:53.863Z,995.91
2018-03-16T08:17:02.514Z,995.92
2018-03-16T08:18:11.685Z,995.92
2018-03-16T08:19:20.923Z,995.93
2018-03-16T08:20:30.341Z,995.95
2018-03-16T08:21:39.801Z,995.95
2018-03-16T08:22:48.981Z,995.96
2018-03-16T08:23:57.900Z,995.96
2018-03-16T08:25:06.601Z,995.99
2018-03-16T08:26:15.264Z,995.96
2018-03-16T08:27:24.463Z,995.96
2018-03-16T08:28:33.645Z,996
2018-03-16T08:29:42.542Z,996
2018-03-16T08:30:51.728Z,996
2018-03-16T08:32:00.906Z,996
2018-03-16T08:33:10.084Z,996.03
2018-03-16T08:34:18.997Z,995.97
2018-03-16T08:35:28.433Z,995.98
2018-03-16T08:36:37.907Z,995.97
2018-03-16T08:37:46.830Z,995.98
2018-03-16T08:38:55.746Z,995.97
2018-03-16T08:40:04.919Z,995.97
2018-03-16T08:41:14.414Z,995.93
2018-03-16T08:42:23.092Z,995.98
2018-03-16T08:43:32.351Z,995.95
2018-03-16T08:44:41.388Z,995.95
2018-03-16T08:45:50.558Z,995.98
2018-03-16T08:46:59.482Z,995.96
2018-03-16T08:48:08.687Z,995.97
2018-03-16T08:49:17.876Z,995.97
2018-03-16T08:50:26.810Z,995.96
2018-03-16T08:51:35.767Z,995.98
2018-03-16T08:52:44.686Z,995.97
2018-03-16T08:53:53.334Z,995.95
2018-03-16T08:55:02.307Z,995.97
2018-03-16T08:56:11.232Z,995.96
2018-03-16T08:57:19.897Z,996.01
2018-03-16T08:58:29.086Z,995.99
2018-03-16T08:59:38.021Z,996.04
2018-03-16T09:00:47.280Z,996.05
2018-03-16T09:01:56.748Z,996.05
2018-03-16T09:03:05.985Z,996.05
2018-03-16T09:04:14.906Z,996.08
2018-03-16T09:05:24.090Z,996.07
2018-03-16T09:06:33.284Z,996.05
2018-03-16T09:07:42.737Z,996.09
2018-03-16T09:08:52.191Z,996.08
2018-03-16T09:10:01.628Z,996.1
2018-03-16T09:11:11.073Z,996.11
2018-03-16T09:12:20.280Z,996.11
2018-03-16T09:13:29.558Z,996.11
2018-03-16T09:14:38.222Z,996.13
2018-03-16T09:15:47.717Z,996.11
2018-03-16T09:16:56.905Z,996.1
2018-03-16T09:18:05.841Z,996.14
2018-03-16T09:19:14.822Z,996.17
2018-03-16T09:20:24.326Z,996.16
2018-03-16T09:21:33.245Z,996.19
2018-03-16T09:22:42.956Z,996.19
2018-03-16T09:23:51.894Z,996.22
2018-03-16T09:25:00.822Z,996.2
2018-03-16T09:26:10.021Z,996.24
2018-03-16T09:27:18.950Z,996.26
2018-03-16T09:28:28.147Z,996.28
2018-03-16T09:29:37.354Z,996.28
2018-03-16T09:30:46.556Z,996.27
2018-03-16T09:31:55.720Z,996.29
2018-03-16T09:33:04.384Z,996.31
2018-03-16T09:34:13.813Z,996.32
2018-03-16T09:35:23.267Z,996.3
2018-03-16T09:36:32.462Z,996.3
2018-03-16T09:37:41.739Z,996.3
2018-03-16T09:38:50.935Z,996.32
2018-03-16T09:39:59.605Z,996.32
2018-03-16T09:41:08.518Z,996.33
2018-03-16T09:42:17.172Z,996.29
2018-03-16T09:43:26.872Z,996.31
2018-03-16T09:44:35.799Z,996.32
2018-03-16T09:45:44.732Z,996.27
2018-03-16T09:46:54.155Z,996.34
2018-03-16T09:48:03.336Z,996.31
2018-03-16T09:49:12.524Z,996.33
2018-03-16T09:50:21.696Z,996.35
2018-03-16T09:51:30.642Z,996.33
2018-03-16T09:52:39.864Z,996.33
2018-03-16T09:53:49.294Z,996.35
2018-03-16T09:54:58.278Z,996.35
2018-03-16T09:56:07.230Z,996.38
2018-03-16T09:57:16.188Z,996.4
2018-03-16T09:58:25.412Z,996.39
2018-03-16T09:59:34.092Z,996.4
2018-03-16T10:00:43.018Z,996.42
2018-03-16T10:01:52.240Z,996.43
2018-03-16T10:03:01.517Z,996.43
2018-03-16T10:04:10.837Z,996.46
2018-03-16T10:05:19.767Z,996.41
2018-03-16T10:06:28.721Z,996.47
2018-03-16T10:07:38.183Z,996.42
2018-03-16T10:08:47.378Z,996.46
2018-03-16T10:09:56.577Z,996.45
2018-03-16T10:11:05.762Z,996.44
2018-03-16T10:12:14.963Z,996.44
2018-03-16T10:13:24.402Z,996.44
2018-03-16T10:14:33.867Z,996.47
2018-03-16T10:15:42.538Z,996.47
2018-03-16T10:16:51.482Z,996.47
2018-03-16T10:18:00.173Z,996.49
2018-03-16T10:19:09.122Z,996.5
2018-03-16T10:20:17.798Z,996.48
2018-03-16T10:21:26.975Z,996.47
2018-03-16T10:22:36.462Z,996.48
2018-03-16T10:23:45.117Z,996.5
2018-03-16T10:24:54.281Z,996.5
2018-03-16T10:26:03.774Z,996.5
2018-03-16T10:27:12.952Z,996.5
2018-03-16T10:28:22.126Z,996.5
2018-03-16T10:29:31.331Z,996.52
2018-03-16T10:30:40.248Z,996.5
2018-03-16T10:31:49.434Z,996.47
2018-03-16T10:32:58.098Z,996.5
2018-03-16T10:34:07.019Z,996.5
2018-03-16T10:35:16.185Z,996.51
2018-03-16T10:36:25.343Z,996.54
2018-03-16T10:37:34.793Z,996.55
2018-03-16T10:38:43.968Z,996.58
2018-03-16T10:39:52.885Z,996.57
2018-03-16T10:41:01.823Z,996.64
2018-03-16T10:42:11.546Z,996.59
2018-03-16T10:43:20.198Z,996.64
2018-03-16T10:44:29.108Z,996.62
2018-03-16T10:45:37.805Z,996.65
2018-03-16T10:46:47.250Z,996.64
2018-03-16T10:47:56.416Z,996.66
2018-03-16T10:49:05.576Z,996.67
2018-03-16T10:50:15.006Z,996.68
2018-03-16T10:51:23.926Z,996.73
2018-03-16T10:52:33.355Z,996.72
2018-03-16T10:53:42.282Z,996.74
2018-03-16T10:54:51.210Z,996.72
2018-03-16T10:55:59.881Z,996.75
2018-03-16T10:57:08.796Z,996.77
2018-03-16T10:58:17.706Z,996.73
2018-03-16T10:59:26.894Z,996.73
2018-03-16T11:00:36.075Z,996.75
2018-03-16T11:01:45.007Z,996.76
2018-03-16T11:02:54.442Z,996.79
2018-03-16T11:04:03.625Z,996.79
2018-03-16T11:05:13.086Z,996.79
2018-03-16T11:06:21.776Z,996.81
2018-03-16T11:07:30.966Z,996.82
2018-03-16T11:08:39.653Z,996.81
2018-03-16T11:09:49.110Z,996.8
2018-03-16T11:10:58.042Z,996.8
2018-03-16T11:12:06.964Z,996.82
2018-03-16T11:13:15.609Z,996.82
2018-03-16T11:14:24.556Z,996.83
2018-03-16T11:15:33.283Z,996.84
2018-03-16T11:16:42.489Z,996.85
2018-03-16T11:17:51.930Z,996.84
2018-03-16T11:19:00.890Z,996.87
2018-03-16T11:20:10.079Z,996.88
2018-03-16T11:21:19.245Z,996.88
2018-03-16T11:22:28.175Z,996.9
2018-03-16T11:23:37.637Z,996.89
2018-03-16T11:24:46.828Z,996.9
2018-03-16T11:25:55.562Z,996.88
2018-03-16T11:27:05.004Z,996.89
2018-03-16T11:28:13.682Z,996.92
2018-03-16T11:29:22.601Z,996.93
2018-03-16T11:30:31.525Z,996.91
2018-03-16T11:31:40.732Z,996.93
2018-03-16T11:32:49.394Z,996.92
2018-03-16T11:33:58.814Z,996.92
2018-03-16T11:35:07.744Z,996.93
2018-03-16T11:36:16.936Z,996.95
2018-03-16T11:37:26.133Z,996.99
2018-03-16T11:38:35.362Z,996.91
2018-03-16T11:39:44.577Z,996.93
2018-03-16T11:40:53.491Z,996.95
2018-03-16T11:42:02.678Z,996.94
2018-03-16T11:43:11.333Z,996.92
2018-03-16T11:44:20.542Z,996.92
2018-03-16T11:45:29.454Z,996.97
2018-03-16T11:46:38.370Z,996.95
2018-03-16T11:47:47.042Z,996.97
2018-03-16T11:48:55.948Z,996.98
2018-03-16T11:50:05.638Z,996.98
2018-03-16T11:51:14.837Z,996.97
2018-03-16T11:52:24.021Z,997.01
2018-03-16T11:53:33.195Z,997
2018-03-16T11:54:42.381Z,997.01
2018-03-16T11:55:51.619Z,997.02
2018-03-16T11:57:00.773Z,997.02
2018-03-16T11:58:10.207Z,997.04
2018-03-16T11:59:19.128Z,997.02
2018-03-16T12:00:28.098Z,997.07
2018-03-16T12:01:37.023Z,997.04
2018-03-16T12:02:45.974Z,997.05
2018-03-16T12:03:55.152Z,997.06
2018-03-16T12:05:04.059Z,997.02
2018-03-16T12:06:13.516Z,997.06
2018-03-16T12:07:22.487Z,997.01
2018-03-16T12:08:31.170Z,997.04
2018-03-16T12:09:40.065Z,997.03
2018-03-16T12:10:49.258Z,997.04
2018-03-16T12:11:57.921Z,997.04
2018-03-16T12:13:07.105Z,997.02
2018-03-16T12:14:16.802Z,997.09
2018-03-16T12:15:25.703Z,997.04
2018-03-16T12:16:34.619Z,997.04
2018-03-16T12:17:43.790Z,997.05
2018-03-16T12:18:53.207Z,997.05
2018-03-16T12:20:02.399Z,997.06
2018-03-16T12:21:11.586Z,997.05
2018-03-16T12:22:20.293Z,997.04
2018-03-16T12:23:28.960Z,997.04
2018-03-16T12:24:37.896Z,997
2018-03-16T12:25:46.834Z,997.07
2018-03-16T12:26:56.050Z,997.04
2018-03-16T12:28:05.478Z,997.03
2018-03-16T12:29:14.926Z,997
2018-03-16T12:30:23.600Z,997.01
2018-03-16T12:31:32.527Z,997.01
2018-03-16T12:32:41.196Z,997.01
2018-03-16T12:33:50.629Z,997.05
2018-03-16T12:34:59.792Z,997.06
2018-03-16T12:36:09.263Z,997.05
2018-03-16T12:37:18.699Z,997.06
2018-03-16T12:38:27.885Z,997.06
2018-03-16T12:39:37.180Z,997.03
2018-03-16T12:40:46.437Z,997.05
2018-03-16T12:41:55.370Z,997.07
2018-03-16T12:43:04.313Z,997.08
2018-03-16T12:44:13.263Z,997.12
2018-03-16T12:45:22.475Z,997.07
2018-03-16T12:46:31.662Z,997.06
2018-03-16T12:47:41.096Z,997.08
2018-03-16T12:48:50.564Z,997.05
2018-03-16T12:49:59.582Z,997.03
2018-03-16T12:51:08.811Z,997.09
2018-03-16T12:52:17.483Z,997.05
2018-03-16T12:53:27.257Z,997.05
2018-03-16T12:54:36.192Z,997.05
2018-03-16T12:55:45.419Z,997.06
2018-03-16T12:56:54.598Z,997.02
2018-03-16T12:58:04.027Z,997.08
2018-03-16T12:59:13.486Z,997.05
2018-03-16T13:00:22.129Z,997.03
2018-03-16T13:01:31.575Z,997.04
2018-03-16T13:02:40.807Z,997.02
2018-03-16T13:03:50.023Z,997.02
2018-03-16T13:04:58.963Z,997.04
2018-03-16T13:06:08.186Z,997.04
2018-03-16T13:07:17.885Z,997.07
2018-03-16T13:08:27.312Z,997.04
2018-03-16T13:09:36.498Z,997.02
2018-03-16T13:10:45.678Z,997.08
2018-03-16T13:11:54.581Z,997.05
2018-03-16T13:13:03.510Z,997.05
2018-03-16T13:14:12.997Z,997.07
2018-03-16T13:15:22.456Z,997.05
2018-03-16T13:16:31.643Z,997.06
2018-03-16T13:17:40.808Z,997.06
2018-03-16T13:18:49.474Z,997.09
2018-03-16T13:19:58.398Z,997.1
2018-03-16T13:21:07.306Z,997.08
2018-03-16T13:22:16.524Z,997.11
2018-03-16T13:23:26.174Z,997.09
2018-03-16T13:24:35.205Z,997.09
2018-03-16T13:25:44.632Z,997.12
2018-03-16T13:26:54.386Z,997.09
2018-03-16T13:28:03.580Z,997.11
2018-03-16T13:29:12.772Z,997.12
2018-03-16T13:30:21.736Z,997.11
2018-03-16T13:31:30.694Z,997.13
2018-03-16T13:32:39.870Z,997.1
2018-03-16T13:33:48.808Z,997.1
2018-03-16T13:34:58.247Z,997.11
2018-03-16T13:36:07.693Z,997.11
2018-03-16T13:37:16.603Z,997.09
2018-03-16T13:38:25.511Z,997.13
2018-03-16T13:39:34.685Z,997.14
2018-03-16T13:40:43.353Z,997.2
2018-03-16T13:41:52.585Z,997.21
2018-03-16T13:43:01.526Z,997.17
2018-03-16T13:44:10.737Z,997.19
2018-03-16T13:45:20.729Z,997.15
2018-03-16T13:46:30.444Z,997.13
2018-03-16T13:47:39.874Z,997.17
2018-03-16T13:48:49.380Z,997.18
2018-03-16T13:49:59.114Z,997.15
2018-03-16T13:51:08.291Z,997.21
2018-03-16T13:52:17.473Z,997.21
2018-03-16T13:53:26.698Z,997.22
2018-03-16T13:54:36.174Z,997.24
2018-03-16T13:55:45.872Z,997.24
2018-03-16T13:56:54.822Z,997.22
2018-03-16T13:58:03.990Z,997.22
2018-03-16T13:59:13.191Z,997.25
2018-03-16T14:00:22.378Z,997.25
2018-03-16T14:01:31.318Z,997.29
2018-03-16T14:02:40.220Z,997.26
2018-03-16T14:03:49.156Z,997.28
2018-03-16T14:04:58.092Z,997.31
2018-03-16T14:06:07.020Z,997.3
2018-03-16T14:07:16.443Z,997.31
2018-03-16T14:08:25.612Z,997.29
2018-03-16T14:09:34.794Z,997.33
2018-03-16T14:10:43.715Z,997.33
2018-03-16T14:11:53.153Z,997.34
2018-03-16T14:13:02.586Z,997.35
2018-03-16T14:14:11.251Z,997.34
2018-03-16T14:15:20.154Z,997.35
2018-03-16T14:16:29.314Z,997.38
2018-03-16T14:17:38.283Z,997.39
2018-03-16T14:18:47.454Z,997.42
2018-03-16T14:19:56.363Z,997.38
2018-03-16T14:21:05.795Z,997.36
2018-03-16T14:22:14.729Z,997.41
2018-03-16T14:23:24.275Z,997.39
2018-03-16T14:24:33.192Z,997.39
2018-03-16T14:25:42.127Z,997.37